Branchville, Alabama
Current Conditions -  °F | °C
As of 2:53 PM on Friday 31 Oct 2014 (Local Time) from KBHM Reporting Station
Overcast Overcast  
Wind Chill: 62°   Ceiling: 6000
Heat Index: 62°   Visibility: 10mi
Dew Point: 41°   Wind: 13mph
Humidity: 46%   Direction: 340°NNW
Pressure: 29.97"   Gusts: NA
Location:  33.6693°N, 86.4042°W
Report Text: KBHM 311953Z 34011KT 10SM SCT048 OVC060 17/05 A2997 RMK AO2 SLP146 T01670050
Loading
Personal Weather Stations






























Interactive Weather Map
Tropical Storm Tracking
New forecast layout! Learn more

10-Day Weather Forecast

Advertisements
Track Severe Weather on mobile